Time;durP1;ratioP1;P1;durP2;ratioP2;P2;SDS_P1;SDS_P2;PMS_P1;PMS_P2;Temp;Humidity;BMP_temperature;BMP_pressure;BME280_temperature;BME280_humidity;BME280_pressure;Samples;Min_cycle;Max_cycle;Signal;HPM_P1;HPM_P2
2023/03/16 00:01:11;;;;;;;2.97;1.17;;;;;;;;;;5095916;28;20224;-93
2023/03/16 00:03:38;;;;;;;6.30;1.40;;;;;;;;;;5095707;28;20224;-92
2023/03/16 00:06:05;;;;;;;6.57;1.80;;;;;;;;;;5094873;28;20195;-92
2023/03/16 00:08:34;;;;;;;7.23;1.60;;;;;;;;;;5095695;28;20325;-94
2023/03/16 00:11:01;;;;;;;8.67;1.80;;;;;;;;;;5095211;28;20191;-92
2023/03/16 00:13:29;;;;;;;5.70;1.80;;;;;;;;;;5110437;28;20205;-94
2023/03/16 00:15:58;;;;;;;6.10;2.00;;;;;;;;;;5115305;28;20737;-94
2023/03/16 00:18:27;;;;;;;4.80;1.90;;;;;;;;;;5115888;28;20228;-93
2023/03/16 00:20:54;;;;;;;4.73;1.90;;;;;;;;;;5115740;28;20678;-93
2023/03/16 00:23:25;;;;;;;4.77;1.50;;;;;;;;;;5116173;27;20223;-93
2023/03/16 00:25:55;;;;;;;3.77;1.70;;;;;;;;;;5115816;28;20193;-92
2023/03/16 00:28:22;;;;;;;4.43;1.87;;;;;;;;;;5115757;28;20312;-93
2023/03/16 00:30:50;;;;;;;4.90;1.57;;;;;;;;;;5114896;28;20720;-92
2023/03/16 00:33:18;;;;;;;5.70;2.10;;;;;;;;;;5115805;28;20286;-92
2023/03/16 00:35:48;;;;;;;4.53;1.67;;;;;;;;;;5115166;28;20221;-92
2023/03/16 00:38:16;;;;;;;4.47;2.13;;;;;;;;;;5114764;28;20704;-91
2023/03/16 00:40:43;;;;;;;3.53;1.57;;;;;;;;;;5115152;28;20225;-92
2023/03/16 00:43:10;;;;;;;5.43;1.83;;;;;;;;;;5114887;28;20197;-92
2023/03/16 00:45:37;;;;;;;4.13;1.90;;;;;;;;;;5115175;28;20253;-92
2023/03/16 00:48:05;;;;;;;3.93;1.53;;;;;;;;;;5115031;28;20244;-91
2023/03/16 00:50:33;;;;;;;3.40;1.70;;;;;;;;;;5114941;28;20213;-92
2023/03/16 00:53:00;;;;;;;4.97;1.60;;;;;;;;;;5115230;28;20630;-93
2023/03/16 00:55:28;;;;;;;5.53;2.00;;;;;;;;;;5114296;28;20230;-92
2023/03/16 00:57:55;;;;;;;7.07;2.03;;;;;;;;;;5114222;28;20624;-93
2023/03/16 01:00:26;;;;;;;5.93;2.10;;;;;;;;;;5115522;28;20229;-91
2023/03/16 01:02:53;;;;;;;5.20;1.97;;;;;;;;;;5115169;28;20186;-92
2023/03/16 01:05:20;;;;;;;6.73;2.17;;;;;;;;;;5114912;28;20213;-90
2023/03/16 01:07:49;;;;;;;5.40;2.20;;;;;;;;;;5114727;28;20249;-92
2023/03/16 01:10:19;;;;;;;5.40;2.20;;;;;;;;;;5115115;27;20221;-92
2023/03/16 01:12:46;;;;;;;4.63;2.00;;;;;;;;;;5114365;28;20646;-91
2023/03/16 01:15:14;;;;;;;5.83;1.93;;;;;;;;;;5114903;28;20644;-92
2023/03/16 01:17:41;;;;;;;3.90;2.00;;;;;;;;;;5114851;28;20231;-92
2023/03/16 01:20:11;;;;;;;4.53;1.77;;;;;;;;;;5114400;28;20190;-92
2023/03/16 01:22:38;;;;;;;6.30;2.20;;;;;;;;;;5114672;28;20639;-92
2023/03/16 01:25:07;;;;;;;3.03;1.40;;;;;;;;;;5114999;28;20638;-92
2023/03/16 01:27:35;;;;;;;2.93;1.60;;;;;;;;;;5114285;28;20193;-92
2023/03/16 01:30:02;;;;;;;3.67;1.40;;;;;;;;;;5114199;28;20203;-91
2023/03/16 01:32:30;;;;;;;6.30;1.77;;;;;;;;;;5114439;28;20190;-91
2023/03/16 01:34:57;;;;;;;4.43;1.83;;;;;;;;;;5114826;28;20190;-92
2023/03/16 01:37:24;;;;;;;8.37;2.40;;;;;;;;;;5114102;28;20220;-92
2023/03/16 01:39:51;;;;;;;3.50;1.63;;;;;;;;;;5114655;28;20219;-91
2023/03/16 01:42:20;;;;;;;5.10;2.20;;;;;;;;;;5113768;28;20278;-91
2023/03/16 01:44:51;;;;;;;5.87;2.37;;;;;;;;;;5114893;28;20233;-91
2023/03/16 01:47:18;;;;;;;6.63;2.47;;;;;;;;;;5114110;28;20235;-91
2023/03/16 01:49:47;;;;;;;8.97;2.50;;;;;;;;;;5113935;28;20813;-90
2023/03/16 01:52:15;;;;;;;5.97;2.90;;;;;;;;;;5114095;28;20730;-91
2023/03/16 01:54:44;;;;;;;6.97;3.20;;;;;;;;;;5114033;28;20228;-92
2023/03/16 01:57:13;;;;;;;7.20;3.00;;;;;;;;;;5113697;28;20239;-90
2023/03/16 01:59:45;;;;;;;9.83;2.83;;;;;;;;;;5114098;28;20228;-90
2023/03/16 02:02:13;;;;;;;7.73;3.43;;;;;;;;;;5114241;28;20289;-91
2023/03/16 02:04:43;;;;;;;8.10;3.30;;;;;;;;;;5113717;28;20236;-91
2023/03/16 02:07:11;;;;;;;6.57;2.90;;;;;;;;;;5113478;28;20221;-91
2023/03/16 02:09:41;;;;;;;8.17;2.93;;;;;;;;;;5114112;28;20229;-91
2023/03/16 02:12:16;;;;;;;6.07;2.97;;;;;;;;;;5113809;28;20301;-91
2023/03/16 02:14:45;;;;;;;7.37;3.10;;;;;;;;;;5113914;28;20192;-90
2023/03/16 02:17:13;;;;;;;8.30;3.23;;;;;;;;;;5113646;28;21349;-90
2023/03/16 02:19:46;;;;;;;8.20;3.30;;;;;;;;;;5113652;28;20285;-90
2023/03/16 02:22:13;;;;;;;10.30;3.50;;;;;;;;;;5113959;28;20185;-91
2023/03/16 02:24:41;;;;;;;7.33;3.97;;;;;;;;;;5113355;28;20227;-91
2023/03/16 02:27:10;;;;;;;5.47;3.50;;;;;;;;;;5114578;28;20278;-90
2023/03/16 02:29:57;;;;;;;7.70;4.20;;;;;;;;;;5114729;28;20724;-91
2023/03/16 02:32:25;;;;;;;6.10;3.70;;;;;;;;;;5116963;28;20734;-91
2023/03/16 02:34:53;;;;;;;7.70;4.30;;;;;;;;;;5117222;28;20221;-89
2023/03/16 02:37:20;;;;;;;8.43;4.40;;;;;;;;;;5117210;28;20281;-91
2023/03/16 02:39:47;;;;;;;13.37;5.20;;;;;;;;;;5117225;28;20190;-91
2023/03/16 02:42:16;;;;;;;11.40;4.97;;;;;;;;;;5117666;28;20201;-91
2023/03/16 02:44:45;;;;;;;10.23;4.70;;;;;;;;;;5117402;28;20222;-91
2023/03/16 02:47:17;;;;;;;10.97;4.63;;;;;;;;;;5117544;28;20213;-90
2023/03/16 02:49:45;;;;;;;12.10;5.00;;;;;;;;;;5116499;28;20326;-91
2023/03/16 02:52:12;;;;;;;11.90;5.10;;;;;;;;;;5117234;28;20288;-91
2023/03/16 02:54:39;;;;;;;11.30;5.43;;;;;;;;;;5117263;28;20190;-90
2023/03/16 02:57:07;;;;;;;13.37;5.40;;;;;;;;;;5117223;28;20241;-91
2023/03/16 02:59:34;;;;;;;10.47;5.20;;;;;;;;;;5117065;28;20273;-91
2023/03/16 03:02:01;;;;;;;11.53;5.53;;;;;;;;;;5116901;28;20278;-91
2023/03/16 03:04:31;;;;;;;12.00;5.60;;;;;;;;;;5117198;28;20289;-91
2023/03/16 03:07:03;;;;;;;11.27;5.27;;;;;;;;;;5117002;28;20662;-91
2023/03/16 03:09:31;;;;;;;10.07;5.50;;;;;;;;;;5116373;28;20226;-91
2023/03/16 03:11:58;;;;;;;10.60;4.90;;;;;;;;;;5116444;28;20192;-91
2023/03/16 03:14:27;;;;;;;7.43;4.73;;;;;;;;;;5117209;28;20238;-90
2023/03/16 03:16:54;;;;;;;8.33;5.20;;;;;;;;;;5115881;28;20209;-92
2023/03/16 03:19:22;;;;;;;9.07;4.70;;;;;;;;;;5116473;28;20276;-91
2023/03/16 03:21:55;;;;;;;11.43;4.70;;;;;;;;;;5116676;28;20674;-90
2023/03/16 03:24:22;;;;;;;8.57;4.37;;;;;;;;;;5116187;28;20211;-92
2023/03/16 03:26:50;;;;;;;8.20;4.50;;;;;;;;;;5116743;28;20209;-91
2023/03/16 03:29:18;;;;;;;8.13;3.93;;;;;;;;;;5116427;28;20219;-91
2023/03/16 03:31:45;;;;;;;9.33;4.07;;;;;;;;;;5116309;28;20194;-92
2023/03/16 03:34:12;;;;;;;9.40;3.83;;;;;;;;;;5116546;28;20200;-91
2023/03/16 03:36:41;;;;;;;8.47;4.07;;;;;;;;;;5116476;28;20624;-91
2023/03/16 03:39:09;;;;;;;11.47;4.30;;;;;;;;;;5115883;28;20226;-92
2023/03/16 03:41:36;;;;;;;8.23;4.00;;;;;;;;;;5116136;28;20284;-91
2023/03/16 03:44:05;;;;;;;10.27;4.17;;;;;;;;;;5116602;28;20638;-91
2023/03/16 03:46:32;;;;;;;9.37;4.07;;;;;;;;;;5116204;27;20732;-91
2023/03/16 03:49:02;;;;;;;9.00;4.17;;;;;;;;;;5115676;28;20300;-92
2023/03/16 03:51:31;;;;;;;7.97;4.20;;;;;;;;;;5116709;28;20558;-91
2023/03/16 03:53:58;;;;;;;9.27;3.87;;;;;;;;;;5116073;28;20186;-91
2023/03/16 03:56:27;;;;;;;6.60;3.33;;;;;;;;;;5116186;28;20650;-91
2023/03/16 03:58:54;;;;;;;9.90;3.73;;;;;;;;;;5114385;28;20240;-90
2023/03/16 04:01:21;;;;;;;9.50;3.87;;;;;;;;;;5115837;28;20285;-90
2023/03/16 04:03:49;;;;;;;13.00;4.17;;;;;;;;;;5115947;28;20585;-90
2023/03/16 04:06:17;;;;;;;8.90;3.80;;;;;;;;;;5116105;28;20217;-91
2023/03/16 04:08:44;;;;;;;6.07;3.17;;;;;;;;;;5116055;28;20587;-91
2023/03/16 04:11:11;;;;;;;6.03;3.53;;;;;;;;;;5115664;28;20228;-90
2023/03/16 04:13:40;;;;;;;6.27;3.57;;;;;;;;;;5115710;28;20569;-91
2023/03/16 04:16:07;;;;;;;7.47;3.40;;;;;;;;;;5115697;28;20233;-90
2023/03/16 04:18:37;;;;;;;8.53;3.47;;;;;;;;;;5115694;28;20220;-92
2023/03/16 04:21:05;;;;;;;5.93;3.27;;;;;;;;;;5115570;28;20624;-91
2023/03/16 04:23:33;;;;;;;5.27;3.20;;;;;;;;;;5115907;28;20637;-92
2023/03/16 04:26:01;;;;;;;7.93;3.33;;;;;;;;;;5115439;28;20203;-92
2023/03/16 04:28:28;;;;;;;9.37;3.20;;;;;;;;;;5115446;28;20229;-91
2023/03/16 04:30:56;;;;;;;9.07;3.10;;;;;;;;;;5115248;28;20213;-91
2023/03/16 04:33:23;;;;;;;6.73;3.33;;;;;;;;;;5115751;27;20235;-92
2023/03/16 04:35:51;;;;;;;7.57;3.30;;;;;;;;;;5115427;28;20221;-92
2023/03/16 04:38:18;;;;;;;6.90;3.10;;;;;;;;;;5115427;28;20705;-92
2023/03/16 04:40:45;;;;;;;8.03;2.97;;;;;;;;;;5115479;28;20636;-92
2023/03/16 04:43:13;;;;;;;6.73;3.10;;;;;;;;;;5115676;28;20207;-91
2023/03/16 04:45:40;;;;;;;7.27;3.10;;;;;;;;;;5114911;28;20728;-91
2023/03/16 04:48:09;;;;;;;5.60;2.90;;;;;;;;;;5114895;28;20189;-90
2023/03/16 04:50:36;;;;;;;7.00;3.03;;;;;;;;;;5114565;28;20206;-90
2023/03/16 04:53:04;;;;;;;8.13;2.80;;;;;;;;;;5114582;28;20224;-91
2023/03/16 04:55:31;;;;;;;5.80;3.20;;;;;;;;;;5115089;28;20192;-90
2023/03/16 04:57:58;;;;;;;5.13;2.90;;;;;;;;;;5114775;28;20277;-91
2023/03/16 05:00:26;;;;;;;7.50;3.00;;;;;;;;;;5114727;28;20653;-90
2023/03/16 05:02:53;;;;;;;6.53;2.83;;;;;;;;;;5114600;28;20187;-91
2023/03/16 05:05:22;;;;;;;8.17;2.73;;;;;;;;;;5114213;28;20233;-92
2023/03/16 05:07:50;;;;;;;6.47;3.70;;;;;;;;;;5114528;28;20284;-90
2023/03/16 05:10:18;;;;;;;8.47;3.20;;;;;;;;;;5114408;28;20237;-91
2023/03/16 05:12:46;;;;;;;4.47;2.60;;;;;;;;;;5114335;28;20190;-90
2023/03/16 05:15:13;;;;;;;6.50;2.93;;;;;;;;;;5115065;28;20229;-91
2023/03/16 05:17:41;;;;;;;5.10;2.50;;;;;;;;;;5114067;28;20190;-88
2023/03/16 05:20:11;;;;;;;9.00;2.80;;;;;;;;;;5113936;28;20194;-91
2023/03/16 05:22:42;;;;;;;5.13;3.13;;;;;;;;;;5114836;28;20268;-91
2023/03/16 05:25:13;;;;;;;7.37;2.40;;;;;;;;;;5113842;28;20745;-91
2023/03/16 05:27:41;;;;;;;6.63;2.87;;;;;;;;;;5114797;28;20204;-90
2023/03/16 05:30:09;;;;;;;5.17;2.77;;;;;;;;;;5114158;28;20233;-91
2023/03/16 05:32:37;;;;;;;6.00;2.70;;;;;;;;;;5114280;28;20190;-90
2023/03/16 05:35:04;;;;;;;9.07;2.63;;;;;;;;;;5113619;28;20692;-90
2023/03/16 05:37:32;;;;;;;6.80;2.50;;;;;;;;;;5114180;28;20654;-92
2023/03/16 05:40:01;;;;;;;7.53;3.07;;;;;;;;;;5114661;28;20182;-91
2023/03/16 05:42:31;;;;;;;5.03;2.50;;;;;;;;;;5114317;28;20235;-91
2023/03/16 05:44:58;;;;;;;6.17;2.40;;;;;;;;;;5114025;28;20625;-89
2023/03/16 05:47:25;;;;;;;6.43;2.60;;;;;;;;;;5114298;28;20620;-90
2023/03/16 05:49:52;;;;;;;5.13;2.67;;;;;;;;;;5113535;28;20217;-91
2023/03/16 05:52:19;;;;;;;5.73;2.30;;;;;;;;;;5114272;28;20186;-90
2023/03/16 05:54:47;;;;;;;5.30;2.17;;;;;;;;;;5114111;28;20255;-90
2023/03/16 05:57:15;;;;;;;7.30;2.80;;;;;;;;;;5114239;28;20293;-91
2023/03/16 05:59:43;;;;;;;5.50;2.70;;;;;;;;;;5115577;28;20296;-90
2023/03/16 06:02:10;;;;;;;5.10;2.57;;;;;;;;;;5116360;28;20194;-91
2023/03/16 06:04:37;;;;;;;4.60;2.63;;;;;;;;;;5117090;27;20212;-90
2023/03/16 06:07:05;;;;;;;4.20;2.40;;;;;;;;;;5135864;27;20725;-84
2023/03/16 06:09:32;;;;;;;6.40;2.53;;;;;;;;;;5095284;28;20440;-90
2023/03/16 06:11:59;;;;;;;9.23;2.60;;;;;;;;;;5103431;27;20232;-87
2023/03/16 06:14:29;;;;;;;4.57;2.43;;;;;;;;;;5096647;28;20293;-89
2023/03/16 06:16:56;;;;;;;5.60;2.63;;;;;;;;;;5097233;28;20194;-90
2023/03/16 06:19:23;;;;;;;7.33;2.80;;;;;;;;;;5098133;27;20191;-91
2023/03/16 06:21:50;;;;;;;7.20;2.90;;;;;;;;;;5108213;27;20201;-85
2023/03/16 06:24:18;;;;;;;4.70;2.63;;;;;;;;;;5114187;27;20675;-87
2023/03/16 06:26:45;;;;;;;5.43;2.90;;;;;;;;;;5122282;27;20228;-85
2023/03/16 06:29:12;;;;;;;6.87;2.60;;;;;;;;;;5124969;27;20297;-87
2023/03/16 06:31:40;;;;;;;7.60;2.73;;;;;;;;;;5094671;28;20230;-84
2023/03/16 06:34:08;;;;;;;6.43;2.90;;;;;;;;;;5126830;27;20341;-85
2023/03/16 06:36:37;;;;;;;7.30;2.70;;;;;;;;;;5136150;27;20197;-85
2023/03/16 06:39:04;;;;;;;9.07;2.93;;;;;;;;;;5136081;27;20193;-85
2023/03/16 06:41:33;;;;;;;4.53;2.80;;;;;;;;;;5135979;27;20664;-84
2023/03/16 06:44:00;;;;;;;5.00;3.03;;;;;;;;;;5136220;27;20194;-83
2023/03/16 06:46:28;;;;;;;6.13;2.87;;;;;;;;;;5134795;27;20720;-83
2023/03/16 06:48:56;;;;;;;6.53;3.03;;;;;;;;;;5135949;27;20232;-84
2023/03/16 06:51:23;;;;;;;5.73;2.70;;;;;;;;;;5110678;27;20326;-88
2023/03/16 06:53:50;;;;;;;6.57;3.37;;;;;;;;;;5096525;28;20240;-88
2023/03/16 06:56:18;;;;;;;7.07;2.20;;;;;;;;;;5096089;28;20281;-87
2023/03/16 06:58:45;;;;;;;5.83;2.50;;;;;;;;;;5096170;28;20234;-87
2023/03/16 07:01:12;;;;;;;5.63;2.77;;;;;;;;;;5095747;28;20238;-88
2023/03/16 07:03:40;;;;;;;7.70;2.73;;;;;;;;;;5095520;28;20240;-87
2023/03/16 07:06:09;;;;;;;5.27;2.70;;;;;;;;;;5094679;28;20671;-87
2023/03/16 07:08:36;;;;;;;4.03;2.30;;;;;;;;;;5095533;28;20633;-87
2023/03/16 07:11:03;;;;;;;6.37;2.63;;;;;;;;;;5095685;28;20214;-87
2023/03/16 07:13:31;;;;;;;7.57;2.50;;;;;;;;;;5110711;28;20927;-86
2023/03/16 07:15:58;;;;;;;5.57;2.40;;;;;;;;;;5114758;28;20189;-86
2023/03/16 07:18:25;;;;;;;4.37;2.37;;;;;;;;;;5115855;28;20714;-86
2023/03/16 07:20:53;;;;;;;6.17;2.53;;;;;;;;;;5115501;28;20226;-87
2023/03/16 07:23:23;;;;;;;4.23;2.20;;;;;;;;;;5116011;28;20614;-86
2023/03/16 07:25:50;;;;;;;4.53;2.07;;;;;;;;;;5115960;28;20202;-86
2023/03/16 07:28:18;;;;;;;5.43;2.03;;;;;;;;;;5115819;28;20208;-88
2023/03/16 07:30:45;;;;;;;4.93;2.17;;;;;;;;;;5115287;28;20257;-87
2023/03/16 07:33:13;;;;;;;5.47;2.10;;;;;;;;;;5115121;28;20193;-87
2023/03/16 07:35:40;;;;;;;4.53;2.00;;;;;;;;;;5115390;28;20669;-86
2023/03/16 07:38:09;;;;;;;5.00;2.10;;;;;;;;;;5115288;28;20229;-87
2023/03/16 07:40:38;;;;;;;6.13;2.17;;;;;;;;;;5115467;28;20194;-88
2023/03/16 07:43:05;;;;;;;3.83;2.03;;;;;;;;;;5115507;28;20229;-87
2023/03/16 07:45:32;;;;;;;4.13;2.03;;;;;;;;;;5115295;28;20276;-88
2023/03/16 07:48:00;;;;;;;7.30;1.97;;;;;;;;;;5115634;27;20296;-88
2023/03/16 07:50:27;;;;;;;4.87;2.10;;;;;;;;;;5116407;28;20229;-89
2023/03/16 07:52:55;;;;;;;3.73;2.00;;;;;;;;;;5116286;28;20276;-87
2023/03/16 07:55:22;;;;;;;5.53;2.00;;;;;;;;;;5116113;28;20282;-92
2023/03/16 07:57:51;;;;;;;3.17;2.00;;;;;;;;;;5117845;28;20194;-88
2023/03/16 08:00:22;;;;;;;4.53;2.10;;;;;;;;;;5116151;28;20229;-88
2023/03/16 08:02:50;;;;;;;3.75;1.80;;;;;;;;;;5116232;28;20227;-89
2023/03/16 08:05:18;;;;;;;4.57;1.88;;;;;;;;;;5117885;28;20309;-89
2023/03/16 08:07:45;;;;;;;3.53;1.80;;;;;;;;;;5117310;28;20197;-90
2023/03/16 08:10:12;;;;;;;2.83;1.90;;;;;;;;;;5115699;27;20668;-88
2023/03/16 08:12:40;;;;;;;3.72;1.83;;;;;;;;;;5106890;28;20544;-88
2023/03/16 08:15:10;;;;;;;4.85;1.90;;;;;;;;;;5094380;28;20689;-87
2023/03/16 08:17:40;;;;;;;4.07;1.67;;;;;;;;;;5094286;28;20281;-87
2023/03/16 08:20:09;;;;;;;3.70;1.75;;;;;;;;;;5094176;28;20186;-89
2023/03/16 08:22:36;;;;;;;4.70;2.13;;;;;;;;;;5094183;28;20194;-87
2023/03/16 08:25:04;;;;;;;4.10;2.00;;;;;;;;;;5094806;28;20703;-86
2023/03/16 08:27:31;;;;;;;3.53;2.03;;;;;;;;;;5093202;28;20202;-88
2023/03/16 08:30:03;;;;;;;2.88;1.73;;;;;;;;;;5093914;28;20212;-89
2023/03/16 08:32:32;;;;;;;4.72;2.00;;;;;;;;;;5094334;28;20191;-88
2023/03/16 08:34:59;;;;;;;4.85;1.83;;;;;;;;;;5094216;28;20700;-89
2023/03/16 08:37:27;;;;;;;4.18;1.70;;;;;;;;;;5094762;28;20195;-87
2023/03/16 08:39:54;;;;;;;3.47;1.60;;;;;;;;;;5092921;28;20205;-87
2023/03/16 08:42:22;;;;;;;4.00;1.70;;;;;;;;;;5094132;28;20210;-88
2023/03/16 08:44:49;;;;;;;3.03;1.60;;;;;;;;;;5093525;28;20233;-88
2023/03/16 08:47:16;;;;;;;2.78;1.50;;;;;;;;;;5093895;28;20202;-88
2023/03/16 08:49:45;;;;;;;3.08;1.63;;;;;;;;;;5093753;28;20738;-87
2023/03/16 08:52:13;;;;;;;4.25;1.60;;;;;;;;;;5093442;28;20229;-87
2023/03/16 08:54:40;;;;;;;4.53;1.70;;;;;;;;;;5095487;28;20693;-88
2023/03/16 08:57:08;;;;;;;2.80;1.50;;;;;;;;;;5093615;28;20191;-88
2023/03/16 08:59:35;;;;;;;3.83;1.50;;;;;;;;;;5094474;28;20201;-86
2023/03/16 09:02:03;;;;;;;3.65;1.50;;;;;;;;;;5096019;28;20226;-88
2023/03/16 09:04:31;;;;;;;4.72;2.17;;;;;;;;;;5098711;28;20228;-87
2023/03/16 09:07:00;;;;;;;4.05;1.90;;;;;;;;;;5096043;28;20278;-85
2023/03/16 09:09:27;;;;;;;3.55;1.67;;;;;;;;;;5100769;28;20202;-88
2023/03/16 09:11:55;;;;;;;5.50;1.90;;;;;;;;;;5113607;28;20243;-86
2023/03/16 09:14:23;;;;;;;2.83;1.50;;;;;;;;;;5113255;28;20281;-86
2023/03/16 09:16:51;;;;;;;5.32;2.00;;;;;;;;;;5114677;28;20194;-91
2023/03/16 09:19:18;;;;;;;3.72;1.73;;;;;;;;;;5113143;28;20206;-85
2023/03/16 09:21:45;;;;;;;5.03;1.80;;;;;;;;;;5113230;28;20210;-87
2023/03/16 09:24:14;;;;;;;4.13;1.83;;;;;;;;;;5113098;28;20551;-87
2023/03/16 09:26:41;;;;;;;4.23;2.03;;;;;;;;;;5113064;28;20674;-87
2023/03/16 09:29:08;;;;;;;3.40;1.67;;;;;;;;;;5112809;28;20193;-85
2023/03/16 09:31:36;;;;;;;4.20;2.07;;;;;;;;;;5112897;28;20316;-87
2023/03/16 09:34:03;;;;;;;4.07;1.80;;;;;;;;;;5113172;28;20265;-86
2023/03/16 09:36:32;;;;;;;3.63;1.60;;;;;;;;;;5113931;28;20281;-87
2023/03/16 09:38:59;;;;;;;3.57;1.87;;;;;;;;;;5113056;28;20297;-86
2023/03/16 09:41:34;;;;;;;4.97;2.00;;;;;;;;;;5112744;28;20288;-87
2023/03/16 09:44:06;;;;;;;4.37;2.10;;;;;;;;;;5112595;28;20728;-87
2023/03/16 09:46:37;;;;;;;3.80;2.00;;;;;;;;;;5112733;28;20276;-86
2023/03/16 09:49:05;;;;;;;3.70;2.00;;;;;;;;;;5112990;28;20220;-87
2023/03/16 09:51:42;;;;;;;5.03;2.30;;;;;;;;;;5113819;28;20271;-87
2023/03/16 09:54:14;;;;;;;3.93;1.90;;;;;;;;;;5112667;28;20284;-87
2023/03/16 09:56:44;;;;;;;4.23;2.00;;;;;;;;;;5113222;28;20194;-86
2023/03/16 09:59:12;;;;;;;4.40;2.00;;;;;;;;;;5112457;28;20353;-86
2023/03/16 10:01:44;;;;;;;2.50;1.63;;;;;;;;;;5112661;28;20770;-87
2023/03/16 10:04:16;;;;;;;5.57;2.10;;;;;;;;;;5112300;28;20197;-86
2023/03/16 10:06:48;;;;;;;3.20;2.00;;;;;;;;;;5112610;28;20201;-86
2023/03/16 10:09:21;;;;;;;4.28;1.80;;;;;;;;;;5112012;28;20198;-86
2023/03/16 10:11:50;;;;;;;1.98;1.55;;;;;;;;;;5112503;28;20658;-86
2023/03/16 10:14:21;;;;;;;3.28;1.67;;;;;;;;;;5113284;28;20202;-87
2023/03/16 10:16:50;;;;;;;5.30;1.92;;;;;;;;;;5113268;28;20642;-87
2023/03/16 10:19:19;;;;;;;4.70;1.90;;;;;;;;;;5112930;28;20193;-86
2023/03/16 10:21:47;;;;;;;4.78;2.10;;;;;;;;;;5112961;28;20243;-86
2023/03/16 10:24:19;;;;;;;4.07;2.08;;;;;;;;;;5112079;28;20189;-87
2023/03/16 10:26:51;;;;;;;3.65;1.80;;;;;;;;;;5112248;28;20293;-86
2023/03/16 10:29:19;;;;;;;5.63;1.92;;;;;;;;;;5111967;28;20190;-87
2023/03/16 10:31:47;;;;;;;5.43;1.85;;;;;;;;;;5111866;28;20656;-86
2023/03/16 10:34:15;;;;;;;5.47;1.90;;;;;;;;;;5112172;28;20204;-85
2023/03/16 10:36:44;;;;;;;4.37;1.70;;;;;;;;;;5112287;28;20579;-86
2023/03/16 10:39:13;;;;;;;3.13;1.70;;;;;;;;;;5113113;28;20200;-85
2023/03/16 10:41:42;;;;;;;3.67;1.57;;;;;;;;;;5112124;28;20190;-86
2023/03/16 10:44:11;;;;;;;4.47;1.50;;;;;;;;;;5111658;28;20226;-86
2023/03/16 10:46:41;;;;;;;3.43;1.70;;;;;;;;;;5112157;28;20261;-86
2023/03/16 10:49:20;;;;;;;4.63;1.63;;;;;;;;;;5112010;28;20217;-86
2023/03/16 10:51:48;;;;;;;5.47;2.10;;;;;;;;;;5114860;28;20312;-85
2023/03/16 10:54:16;;;;;;;1.70;1.30;;;;;;;;;;5115456;28;20277;-87
2023/03/16 10:56:44;;;;;;;4.57;1.50;;;;;;;;;;5115334;28;20701;-86
2023/03/16 10:59:16;;;;;;;3.67;1.50;;;;;;;;;;5115785;28;20209;-86
2023/03/16 11:01:48;;;;;;;2.13;1.30;;;;;;;;;;5115673;28;20202;-85
2023/03/16 11:04:16;;;;;;;4.28;1.88;;;;;;;;;;5115875;28;20194;-85
2023/03/16 11:06:49;;;;;;;5.32;1.88;;;;;;;;;;5114886;28;20634;-85
2023/03/16 11:09:20;;;;;;;2.65;1.50;;;;;;;;;;5115038;28;20229;-87
2023/03/16 11:11:48;;;;;;;3.40;1.90;;;;;;;;;;5114702;28;20328;-85
2023/03/16 11:14:16;;;;;;;4.30;1.80;;;;;;;;;;5114957;27;20205;-85
2023/03/16 11:16:45;;;;;;;3.63;1.73;;;;;;;;;;5115282;28;20281;-86
2023/03/16 11:19:18;;;;;;;3.03;1.55;;;;;;;;;;5115249;28;20194;-87
2023/03/16 11:21:50;;;;;;;4.13;1.50;;;;;;;;;;5114847;28;20225;-86
2023/03/16 11:24:19;;;;;;;3.03;1.27;;;;;;;;;;5114825;28;20225;-86
2023/03/16 11:26:48;;;;;;;4.20;1.40;;;;;;;;;;5113936;28;20225;-85
2023/03/16 11:29:19;;;;;;;3.65;1.50;;;;;;;;;;5114894;28;20277;-86
2023/03/16 11:31:48;;;;;;;2.78;1.50;;;;;;;;;;5114821;28;20232;-85
2023/03/16 11:34:18;;;;;;;4.88;1.65;;;;;;;;;;5115014;28;20189;-87
2023/03/16 11:36:49;;;;;;;5.82;1.58;;;;;;;;;;5122526;27;20201;-86
2023/03/16 11:39:25;;;;;;;4.20;1.67;;;;;;;;;;5122640;28;20194;-85
2023/03/16 11:42:00;;;;;;;2.50;1.52;;;;;;;;;;5121254;28;20189;-84
2023/03/16 11:44:33;;;;;;;3.45;1.55;;;;;;;;;;5117874;28;20193;-85
2023/03/16 11:47:04;;;;;;;3.85;1.60;;;;;;;;;;5121030;28;20289;-85
2023/03/16 11:49:52;;;;;;;2.60;1.55;;;;;;;;;;5114146;28;20247;-85
2023/03/16 11:52:25;;;;;;;4.50;1.50;;;;;;;;;;5111608;28;20229;-86
2023/03/16 11:54:56;;;;;;;2.03;1.17;;;;;;;;;;5113981;28;20193;-85
2023/03/16 11:57:31;;;;;;;4.70;1.70;;;;;;;;;;5114225;28;20626;-86
2023/03/16 12:00:12;;;;;;;4.07;1.63;;;;;;;;;;5114070;28;20213;-84
2023/03/16 12:02:43;;;;;;;3.75;1.75;;;;;;;;;;5112278;28;20645;-86
2023/03/16 12:05:38;;;;;;;4.55;1.80;;;;;;;;;;5113528;28;20284;-86
2023/03/16 12:08:13;;;;;;;6.80;2.13;;;;;;;;;;5031227;28;20200;-85
2023/03/16 12:10:42;;;;;;;3.17;2.08;;;;;;;;;;5030940;28;20231;-85
2023/03/16 12:13:15;;;;;;;3.92;1.98;;;;;;;;;;5030778;28;20683;-85
2023/03/16 12:15:43;;;;;;;2.67;1.90;;;;;;;;;;5030858;28;20250;-84
2023/03/16 12:18:15;;;;;;;3.92;1.77;;;;;;;;;;5031024;28;20254;-85
2023/03/16 12:20:45;;;;;;;3.60;1.85;;;;;;;;;;5030677;28;20201;-86
2023/03/16 12:23:14;;;;;;;3.72;1.77;;;;;;;;;;5032516;28;20220;-85
2023/03/16 12:25:44;;;;;;;3.47;2.00;;;;;;;;;;5030833;28;20204;-85
2023/03/16 12:28:15;;;;;;;3.70;1.73;;;;;;;;;;5030660;28;20911;-84
2023/03/16 12:30:45;;;;;;;6.25;2.20;;;;;;;;;;5030591;28;20235;-85
2023/03/16 12:33:16;;;;;;;4.65;2.10;;;;;;;;;;5035331;28;20235;-85
2023/03/16 12:35:45;;;;;;;4.47;2.00;;;;;;;;;;5033259;28;20231;-85
2023/03/16 12:38:27;;;;;;;3.80;2.10;;;;;;;;;;5030459;28;20224;-85
2023/03/16 12:41:01;;;;;;;4.07;1.80;;;;;;;;;;5028239;28;20270;-85
2023/03/16 12:43:34;;;;;;;4.63;1.90;;;;;;;;;;5057931;28;20194;-85
2023/03/16 12:46:07;;;;;;;3.13;1.85;;;;;;;;;;5113040;28;20279;-84
2023/03/16 12:48:37;;;;;;;4.53;2.00;;;;;;;;;;5112448;28;20633;-85
2023/03/16 12:51:05;;;;;;;3.42;1.77;;;;;;;;;;5113498;28;20229;-85
2023/03/16 12:53:46;;;;;;;1.83;1.40;;;;;;;;;;5113029;28;20226;-85
2023/03/16 12:56:17;;;;;;;3.60;1.60;;;;;;;;;;5113235;28;20272;-85
2023/03/16 12:58:45;;;;;;;3.58;1.80;;;;;;;;;;5112505;28;20634;-85
2023/03/16 13:01:15;;;;;;;4.00;1.60;;;;;;;;;;5112721;28;20200;-84
2023/03/16 13:03:43;;;;;;;5.57;2.00;;;;;;;;;;5112807;28;20202;-84
2023/03/16 13:06:17;;;;;;;4.85;1.98;;;;;;;;;;5112613;28;20666;-84
2023/03/16 13:08:48;;;;;;;4.32;2.05;;;;;;;;;;5112629;28;20312;-83
2023/03/16 13:11:16;;;;;;;4.07;1.80;;;;;;;;;;5112186;28;20296;-84
2023/03/16 13:13:51;;;;;;;2.85;1.90;;;;;;;;;;5112265;28;20201;-85
2023/03/16 13:16:27;;;;;;;4.78;1.90;;;;;;;;;;5112189;28;20658;-85
2023/03/16 13:18:54;;;;;;;4.80;1.88;;;;;;;;;;5112201;28;20200;-85
2023/03/16 13:21:24;;;;;;;3.65;1.83;;;;;;;;;;5112288;28;20221;-85
2023/03/16 13:23:56;;;;;;;3.60;2.38;;;;;;;;;;5112309;28;20212;-84
2023/03/16 13:26:31;;;;;;;4.78;2.10;;;;;;;;;;5112561;28;20186;-85
2023/03/16 13:28:59;;;;;;;4.20;1.70;;;;;;;;;;5113228;28;20196;-85
2023/03/16 13:31:29;;;;;;;2.83;1.50;;;;;;;;;;5112239;28;20197;-85
2023/03/16 13:33:58;;;;;;;2.83;1.67;;;;;;;;;;5111772;28;20754;-85
2023/03/16 13:36:27;;;;;;;3.83;2.03;;;;;;;;;;5112053;28;20310;-84
2023/03/16 13:39:03;;;;;;;3.92;1.80;;;;;;;;;;5112367;28;20198;-85
2023/03/16 13:41:31;;;;;;;3.45;1.90;;;;;;;;;;5112212;28;20907;-84
2023/03/16 13:43:59;;;;;;;4.35;1.73;;;;;;;;;;5112307;28;20229;-84
2023/03/16 13:46:28;;;;;;;3.90;1.75;;;;;;;;;;5111909;28;20229;-84
2023/03/16 13:48:58;;;;;;;2.95;1.83;;;;;;;;;;5111640;28;20198;-84
2023/03/16 13:51:29;;;;;;;4.90;1.80;;;;;;;;;;5112290;28;20197;-84
2023/03/16 13:53:56;;;;;;;3.70;1.70;;;;;;;;;;5112127;28;20231;-85
2023/03/16 13:56:25;;;;;;;4.03;1.63;;;;;;;;;;5111804;28;20232;-84
2023/03/16 13:58:54;;;;;;;4.20;1.52;;;;;;;;;;5112291;28;20197;-84
2023/03/16 14:01:25;;;;;;;4.65;1.90;;;;;;;;;;5111816;28;20190;-85
2023/03/16 14:03:52;;;;;;;3.95;1.50;;;;;;;;;;5111829;28;20663;-85
2023/03/16 14:06:24;;;;;;;2.60;1.63;;;;;;;;;;5112327;28;20545;-84
2023/03/16 14:08:52;;;;;;;3.72;1.38;;;;;;;;;;5111818;28;20209;-85
2023/03/16 14:11:20;;;;;;;3.88;1.40;;;;;;;;;;5112170;28;20201;-84
2023/03/16 14:13:52;;;;;;;7.05;1.70;;;;;;;;;;5111998;28;20253;-84
2023/03/16 14:16:22;;;;;;;2.88;1.40;;;;;;;;;;5111815;28;20194;-85
2023/03/16 14:18:53;;;;;;;2.33;1.30;;;;;;;;;;5111825;28;20614;-84
2023/03/16 14:21:22;;;;;;;3.92;1.63;;;;;;;;;;5111889;28;20189;-86
2023/03/16 14:23:52;;;;;;;4.50;1.42;;;;;;;;;;5111754;28;20198;-84
2023/03/16 14:26:20;;;;;;;2.38;1.52;;;;;;;;;;5113927;28;20197;-85
2023/03/16 14:28:56;;;;;;;4.00;1.52;;;;;;;;;;5115437;28;20289;-85
2023/03/16 14:31:31;;;;;;;2.83;1.25;;;;;;;;;;5115236;28;20547;-84
2023/03/16 14:34:00;;;;;;;2.92;1.50;;;;;;;;;;5115377;28;20651;-84
2023/03/16 14:36:35;;;;;;;2.95;1.80;;;;;;;;;;5115562;27;20224;-84
2023/03/16 14:39:10;;;;;;;3.20;1.55;;;;;;;;;;5115774;28;20197;-84
2023/03/16 14:41:38;;;;;;;5.00;1.63;;;;;;;;;;5115352;28;20189;-84
2023/03/16 14:44:06;;;;;;;3.58;1.52;;;;;;;;;;5115447;28;20217;-84
2023/03/16 14:46:39;;;;;;;3.75;1.33;;;;;;;;;;5115095;28;20341;-84
2023/03/16 14:49:09;;;;;;;2.95;1.20;;;;;;;;;;5115086;28;20182;-85
2023/03/16 14:51:39;;;;;;;2.95;1.45;;;;;;;;;;5114976;28;20213;-85
2023/03/16 14:54:10;;;;;;;3.28;1.20;;;;;;;;;;5114833;28;20253;-85